sensor_id;sensor_type;location;lat;lon;timestamp;pressure;altitude;pressure_sealevel;temperature;humidity
47815;BME280;33579;50.058;18.130;2023-04-26T00:00:22;98808.59;;;7.55;97.00
47815;BME280;33579;50.058;18.130;2023-04-26T00:01:24;98812.28;;;7.52;96.61
47815;BME280;33579;50.058;18.130;2023-04-26T00:02:25;98813.34;;;7.50;96.60
47815;BME280;33579;50.058;18.130;2023-04-26T00:03:27;98811.94;;;7.45;96.43
47815;BME280;33579;50.058;18.130;2023-04-26T00:04:30;98811.69;;;7.49;96.54
47815;BME280;33579;50.058;18.130;2023-04-26T00:05:31;98811.00;;;7.47;96.34
47815;BME280;33579;50.058;18.130;2023-04-26T00:06:33;98813.75;;;7.34;96.29
47815;BME280;33579;50.058;18.130;2023-04-26T00:07:35;98816.50;;;7.32;96.86
47815;BME280;33579;50.058;18.130;2023-04-26T00:08:36;98817.81;;;7.26;96.95
47815;BME280;33579;50.058;18.130;2023-04-26T00:09:38;98817.56;;;7.29;96.96
47815;BME280;33579;50.058;18.130;2023-04-26T00:10:39;98820.06;;;7.31;96.40
47815;BME280;33579;50.058;18.130;2023-04-26T00:11:41;98804.38;;;7.31;96.36
47815;BME280;33579;50.058;18.130;2023-04-26T00:12:43;98809.59;;;7.31;95.75
47815;BME280;33579;50.058;18.130;2023-04-26T00:13:44;98820.06;;;7.31;95.67
47815;BME280;33579;50.058;18.130;2023-04-26T00:14:46;98815.22;;;7.26;95.83
47815;BME280;33579;50.058;18.130;2023-04-26T00:15:47;98810.25;;;7.12;96.12
47815;BME280;33579;50.058;18.130;2023-04-26T00:16:49;98821.28;;;7.15;96.06
47815;BME280;33579;50.058;18.130;2023-04-26T00:17:51;98825.09;;;7.11;96.09
47815;BME280;33579;50.058;18.130;2023-04-26T00:18:52;98818.19;;;7.10;96.26
47815;BME280;33579;50.058;18.130;2023-04-26T00:19:55;98823.19;;;7.13;96.39
47815;BME280;33579;50.058;18.130;2023-04-26T00:20:56;98814.50;;;7.13;96.19
47815;BME280;33579;50.058;18.130;2023-04-26T00:21:58;98820.56;;;7.13;96.28
47815;BME280;33579;50.058;18.130;2023-04-26T00:22:59;98824.72;;;7.27;96.22
47815;BME280;33579;50.058;18.130;2023-04-26T00:24:01;98817.31;;;7.32;95.68
47815;BME280;33579;50.058;18.130;2023-04-26T00:25:03;98824.47;;;7.30;95.28
47815;BME280;33579;50.058;18.130;2023-04-26T00:26:05;98817.94;;;7.25;95.02
47815;BME280;33579;50.058;18.130;2023-04-26T00:27:06;98823.66;;;7.30;95.15
47815;BME280;33579;50.058;18.130;2023-04-26T00:28:08;98824.22;;;7.34;95.20
47815;BME280;33579;50.058;18.130;2023-04-26T00:29:09;98832.81;;;7.36;95.31
47815;BME280;33579;50.058;18.130;2023-04-26T00:30:13;98835.16;;;7.39;95.00
47815;BME280;33579;50.058;18.130;2023-04-26T00:31:15;98834.56;;;7.35;94.97
47815;BME280;33579;50.058;18.130;2023-04-26T00:32:17;98827.69;;;7.34;94.80
47815;BME280;33579;50.058;18.130;2023-04-26T00:33:20;98833.13;;;7.42;94.77
47815;BME280;33579;50.058;18.130;2023-04-26T00:34:22;98828.00;;;7.41;95.05
47815;BME280;33579;50.058;18.130;2023-04-26T00:35:23;98833.97;;;7.43;95.03
47815;BME280;33579;50.058;18.130;2023-04-26T00:36:25;98833.97;;;7.43;95.17
47815;BME280;33579;50.058;18.130;2023-04-26T00:37:27;98830.38;;;7.44;95.54
47815;BME280;33579;50.058;18.130;2023-04-26T00:38:28;98829.06;;;7.50;95.47
47815;BME280;33579;50.058;18.130;2023-04-26T00:39:30;98824.34;;;7.43;94.45
47815;BME280;33579;50.058;18.130;2023-04-26T00:40:32;98829.75;;;7.52;94.08
47815;BME280;33579;50.058;18.130;2023-04-26T00:41:33;98840.38;;;7.50;93.95
47815;BME280;33579;50.058;18.130;2023-04-26T00:42:37;98837.16;;;7.47;93.88
47815;BME280;33579;50.058;18.130;2023-04-26T00:43:39;98840.03;;;7.43;94.41
47815;BME280;33579;50.058;18.130;2023-04-26T00:44:40;98836.22;;;7.36;94.38
47815;BME280;33579;50.058;18.130;2023-04-26T00:45:42;98841.59;;;7.35;94.99
47815;BME280;33579;50.058;18.130;2023-04-26T00:46:44;98839.69;;;7.37;95.28
47815;BME280;33579;50.058;18.130;2023-04-26T00:47:46;98838.03;;;7.36;95.38
47815;BME280;33579;50.058;18.130;2023-04-26T00:48:47;98837.78;;;7.27;95.41
47815;BME280;33579;50.058;18.130;2023-04-26T00:49:49;98841.63;;;7.12;95.95
47815;BME280;33579;50.058;18.130;2023-04-26T00:50:51;98842.19;;;7.15;96.42
47815;BME280;33579;50.058;18.130;2023-04-26T00:51:53;98841.63;;;7.12;96.19
47815;BME280;33579;50.058;18.130;2023-04-26T00:52:56;98839.97;;;7.11;96.09
47815;BME280;33579;50.058;18.130;2023-04-26T00:53:58;98844.81;;;7.15;96.88
47815;BME280;33579;50.058;18.130;2023-04-26T00:55:01;98843.50;;;7.10;97.13
47815;BME280;33579;50.058;18.130;2023-04-26T00:56:05;98837.22;;;6.89;97.42
47815;BME280;33579;50.058;18.130;2023-04-26T00:57:07;98842.94;;;6.83;98.12
47815;BME280;33579;50.058;18.130;2023-04-26T00:58:09;98843.53;;;6.75;98.38
47815;BME280;33579;50.058;18.130;2023-04-26T00:59:11;98846.50;;;6.71;98.91
47815;BME280;33579;50.058;18.130;2023-04-26T01:00:13;98847.69;;;6.67;99.61
47815;BME280;33579;50.058;18.130;2023-04-26T01:01:14;98851.94;;;6.56;99.92
47815;BME280;33579;50.058;18.130;2023-04-26T01:02:16;98851.69;;;6.48;100.00
47815;BME280;33579;50.058;18.130;2023-04-26T01:03:18;98850.03;;;6.47;100.00
47815;BME280;33579;50.058;18.130;2023-04-26T01:04:20;98847.84;;;6.41;100.00
47815;BME280;33579;50.058;18.130;2023-04-26T01:05:23;98850.34;;;6.31;100.00
47815;BME280;33579;50.058;18.130;2023-04-26T01:06:27;98849.88;;;6.26;100.00
47815;BME280;33579;50.058;18.130;2023-04-26T01:07:33;98852.47;;;6.26;100.00
47815;BME280;33579;50.058;18.130;2023-04-26T01:08:36;98850.44;;;6.18;100.00
47815;BME280;33579;50.058;18.130;2023-04-26T01:09:38;98856.00;;;6.13;100.00
47815;BME280;33579;50.058;18.130;2023-04-26T01:10:40;98861.91;;;6.04;100.00
47815;BME280;33579;50.058;18.130;2023-04-26T01:11:43;98856.22;;;6.10;100.00
47815;BME280;33579;50.058;18.130;2023-04-26T01:12:45;98854.97;;;6.27;100.00
47815;BME280;33579;50.058;18.130;2023-04-26T01:13:46;98849.41;;;6.32;100.00
47815;BME280;33579;50.058;18.130;2023-04-26T01:17:23;98856.44;;;6.43;100.00
47815;BME280;33579;50.058;18.130;2023-04-26T01:18:25;98858.09;;;6.44;100.00
47815;BME280;33579;50.058;18.130;2023-04-26T01:19:27;98862.75;;;6.52;100.00
47815;BME280;33579;50.058;18.130;2023-04-26T01:20:29;98866.69;;;6.57;100.00
47815;BME280;33579;50.058;18.130;2023-04-26T01:21:31;98861.91;;;6.51;100.00
47815;BME280;33579;50.058;18.130;2023-04-26T01:22:33;98862.78;;;6.63;100.00
47815;BME280;33579;50.058;18.130;2023-04-26T01:23:35;98862.03;;;6.72;100.00
47815;BME280;33579;50.058;18.130;2023-04-26T01:24:37;98865.88;;;6.80;100.00
47815;BME280;33579;50.058;18.130;2023-04-26T01:25:39;98863.97;;;6.82;100.00
47815;BME280;33579;50.058;18.130;2023-04-26T01:26:41;98866.56;;;6.82;100.00
47815;BME280;33579;50.058;18.130;2023-04-26T01:27:43;98868.38;;;6.81;100.00
47815;BME280;33579;50.058;18.130;2023-04-26T01:28:45;98860.19;;;6.86;100.00
47815;BME280;33579;50.058;18.130;2023-04-26T01:29:46;98862.56;;;6.89;99.47
47815;BME280;33579;50.058;18.130;2023-04-26T01:30:48;98863.16;;;6.93;98.96
47815;BME280;33579;50.058;18.130;2023-04-26T01:31:50;98863.16;;;6.93;98.96
47815;BME280;33579;50.058;18.130;2023-04-26T01:32:51;98866.00;;;6.89;98.65
47815;BME280;33579;50.058;18.130;2023-04-26T01:33:53;98870.16;;;6.92;98.44
47815;BME280;33579;50.058;18.130;2023-04-26T01:34:55;98868.25;;;6.94;98.08
47815;BME280;33579;50.058;18.130;2023-04-26T01:35:56;98866.47;;;6.95;97.93
47815;BME280;33579;50.058;18.130;2023-04-26T01:36:58;98867.66;;;6.91;97.78
47815;BME280;33579;50.058;18.130;2023-04-26T01:38:01;98871.22;;;6.89;97.92
47815;BME280;33579;50.058;18.130;2023-04-26T01:39:03;98868.38;;;6.93;97.46
47815;BME280;33579;50.058;18.130;2023-04-26T01:40:05;98868.50;;;6.91;97.43
47815;BME280;33579;50.058;18.130;2023-04-26T01:41:07;98868.25;;;6.94;97.45
47815;BME280;33579;50.058;18.130;2023-04-26T01:42:09;98869.91;;;6.95;97.31
47815;BME280;33579;50.058;18.130;2023-04-26T01:43:11;98871.72;;;6.95;97.32
47815;BME280;33579;50.058;18.130;2023-04-26T01:44:12;98873.38;;;6.96;97.42
47815;BME280;33579;50.058;18.130;2023-04-26T01:45:14;98871.72;;;6.95;97.30
47815;BME280;33579;50.058;18.130;2023-04-26T01:46:34;98875.16;;;6.95;97.20
47815;BME280;33579;50.058;18.130;2023-04-26T01:47:36;98865.28;;;6.99;96.81
47815;BME280;33579;50.058;18.130;2023-04-26T01:48:38;98867.28;;;7.07;98.97
47815;BME280;33579;50.058;18.130;2023-04-26T01:49:39;98871.94;;;7.03;100.00
47815;BME280;33579;50.058;18.130;2023-04-26T01:50:41;98877.66;;;6.97;100.00
47815;BME280;33579;50.058;18.130;2023-04-26T01:51:43;98870.88;;;6.94;100.00
47815;BME280;33579;50.058;18.130;2023-04-26T01:52:44;98873.25;;;6.86;99.54
47815;BME280;33579;50.058;18.130;2023-04-26T01:53:46;98873.38;;;6.84;100.00
47815;BME280;33579;50.058;18.130;2023-04-26T01:54:48;98873.13;;;6.87;100.00
47815;BME280;33579;50.058;18.130;2023-04-26T01:55:49;98873.47;;;6.83;100.00
47815;BME280;33579;50.058;18.130;2023-04-26T01:56:51;98873.38;;;6.84;100.00
47815;BME280;33579;50.058;18.130;2023-04-26T01:57:52;98873.13;;;6.87;100.00
47815;BME280;33579;50.058;18.130;2023-04-26T01:58:54;98875.88;;;6.86;100.00
47815;BME280;33579;50.058;18.130;2023-04-26T01:59:57;98867.66;;;6.68;99.27
47815;BME280;33579;50.058;18.130;2023-04-26T02:01:07;98873.19;;;6.40;98.76
47815;BME280;33579;50.058;18.130;2023-04-26T02:02:10;98870.97;;;6.11;99.70
47815;BME280;33579;50.058;18.130;2023-04-26T02:03:12;98877.72;;;6.14;100.00
47815;BME280;33579;50.058;18.130;2023-04-26T02:04:14;98881.41;;;6.23;100.00
47815;BME280;33579;50.058;18.130;2023-04-26T02:05:16;98871.25;;;6.31;100.00
47815;BME280;33579;50.058;18.130;2023-04-26T02:06:17;98871.16;;;6.32;100.00
47815;BME280;33579;50.058;18.130;2023-04-26T02:07:19;98870.53;;;6.29;100.00
47815;BME280;33579;50.058;18.130;2023-04-26T02:08:20;98868.72;;;6.18;100.00
47815;BME280;33579;50.058;18.130;2023-04-26T02:09:22;98879.00;;;6.08;100.00
47815;BME280;33579;50.058;18.130;2023-04-26T02:10:24;98880.09;;;6.17;100.00
47815;BME280;33579;50.058;18.130;2023-04-26T02:11:25;98882.97;;;6.25;100.00
47815;BME280;33579;50.058;18.130;2023-04-26T02:12:27;98889.53;;;6.31;100.00
47815;BME280;33579;50.058;18.130;2023-04-26T02:13:30;98883.72;;;6.39;100.00
47815;BME280;33579;50.058;18.130;2023-04-26T02:14:31;98879.00;;;6.44;100.00
47815;BME280;33579;50.058;18.130;2023-04-26T02:15:33;98869.72;;;6.40;100.00
47815;BME280;33579;50.058;18.130;2023-04-26T02:16:34;98873.63;;;6.34;100.00
47815;BME280;33579;50.058;18.130;2023-04-26T02:17:37;98873.28;;;6.39;100.00
47815;BME280;33579;50.058;18.130;2023-04-26T02:18:39;98876.75;;;6.39;100.00
47815;BME280;33579;50.058;18.130;2023-04-26T02:19:40;98874.91;;;6.28;100.00
47815;BME280;33579;50.058;18.130;2023-04-26T02:20:43;98871.84;;;6.35;100.00
47815;BME280;33579;50.058;18.130;2023-04-26T02:21:56;98875.28;;;6.35;99.99
47815;BME280;33579;50.058;18.130;2023-04-26T02:22:58;98869.13;;;6.36;99.96
47815;BME280;33579;50.058;18.130;2023-04-26T02:23:59;98871.00;;;6.34;99.59
47815;BME280;33579;50.058;18.130;2023-04-26T02:25:01;98876.81;;;6.26;98.79
47815;BME280;33579;50.058;18.130;2023-04-26T02:26:03;98869.69;;;6.28;98.50
47815;BME280;33579;50.058;18.130;2023-04-26T02:27:05;98872.28;;;6.28;97.93
47815;BME280;33579;50.058;18.130;2023-04-26T02:28:08;98881.31;;;6.24;97.85
47815;BME280;33579;50.058;18.130;2023-04-26T02:29:09;98879.88;;;6.20;98.10
47815;BME280;33579;50.058;18.130;2023-04-26T02:30:11;98878.44;;;6.16;98.22
47815;BME280;33579;50.058;18.130;2023-04-26T02:31:13;98879.19;;;6.18;98.58
47815;BME280;33579;50.058;18.130;2023-04-26T02:32:15;98880.00;;;6.18;98.42
47815;BME280;33579;50.058;18.130;2023-04-26T02:33:17;98885.13;;;6.20;98.60
47815;BME280;33579;50.058;18.130;2023-04-26T02:34:20;98881.78;;;6.18;98.56
47815;BME280;33579;50.058;18.130;2023-04-26T02:35:22;98884.16;;;6.21;98.46
47815;BME280;33579;50.058;18.130;2023-04-26T02:36:23;98882.28;;;6.23;98.76
47815;BME280;33579;50.058;18.130;2023-04-26T02:37:25;98890.81;;;6.25;98.59
47815;BME280;33579;50.058;18.130;2023-04-26T02:38:27;98883.94;;;6.24;98.36
47815;BME280;33579;50.058;18.130;2023-04-26T02:39:28;98888.22;;;6.25;98.21
47815;BME280;33579;50.058;18.130;2023-04-26T02:40:30;98883.69;;;6.27;97.72
47815;BME280;33579;50.058;18.130;2023-04-26T02:41:32;98888.44;;;6.22;97.51
47815;BME280;33579;50.058;18.130;2023-04-26T02:42:34;98886.25;;;6.16;97.66
47815;BME280;33579;50.058;18.130;2023-04-26T02:43:36;98882.22;;;6.12;97.90
47815;BME280;33579;50.058;18.130;2023-04-26T02:44:38;98883.16;;;6.11;98.12
47815;BME280;33579;50.058;18.130;2023-04-26T02:45:41;98883.78;;;6.14;98.02
47815;BME280;33579;50.058;18.130;2023-04-26T02:46:45;98882.84;;;6.15;98.02
47815;BME280;33579;50.058;18.130;2023-04-26T02:47:47;98884.50;;;6.16;97.95
47815;BME280;33579;50.058;18.130;2023-04-26T02:48:49;98884.50;;;6.16;98.16
47815;BME280;33579;50.058;18.130;2023-04-26T02:49:51;98882.94;;;6.14;98.15
47815;BME280;33579;50.058;18.130;2023-04-26T02:50:53;98885.56;;;6.14;98.00
47815;BME280;33579;50.058;18.130;2023-04-26T02:51:55;98880.31;;;6.14;97.96
47815;BME280;33579;50.058;18.130;2023-04-26T02:52:57;98887.34;;;6.13;97.84
47815;BME280;33579;50.058;18.130;2023-04-26T02:53:58;98886.03;;;6.08;97.82
47815;BME280;33579;50.058;18.130;2023-04-26T02:55:01;98874.97;;;6.04;97.64
47815;BME280;33579;50.058;18.130;2023-04-26T02:56:03;98887.50;;;5.99;97.89
47815;BME280;33579;50.058;18.130;2023-04-26T02:57:05;98879.75;;;5.97;98.07
47815;BME280;33579;50.058;18.130;2023-04-26T02:58:06;98886.16;;;5.93;98.33
47815;BME280;33579;50.058;18.130;2023-04-26T02:59:08;98887.84;;;5.94;98.59
47815;BME280;33579;50.058;18.130;2023-04-26T03:00:10;98885.41;;;5.91;98.70
47815;BME280;33579;50.058;18.130;2023-04-26T03:01:12;98893.59;;;5.86;99.12
47815;BME280;33579;50.058;18.130;2023-04-26T03:02:15;98886.94;;;5.82;99.26
47815;BME280;33579;50.058;18.130;2023-04-26T03:03:17;98889.06;;;5.77;99.45
47815;BME280;33579;50.058;18.130;2023-04-26T03:04:19;98883.31;;;5.72;99.69
47815;BME280;33579;50.058;18.130;2023-04-26T03:05:21;98890.31;;;5.71;99.90
47815;BME280;33579;50.058;18.130;2023-04-26T03:06:23;98885.81;;;5.73;100.00
47815;BME280;33579;50.058;18.130;2023-04-26T03:07:24;98881.41;;;5.74;100.00
47815;BME280;33579;50.058;18.130;2023-04-26T03:08:26;98885.72;;;5.75;99.92
47815;BME280;33579;50.058;18.130;2023-04-26T03:09:28;98882.97;;;5.76;99.61
47815;BME280;33579;50.058;18.130;2023-04-26T03:10:29;98884.53;;;5.79;99.65
47815;BME280;33579;50.058;18.130;2023-04-26T03:11:31;98888.81;;;5.80;99.50
47815;BME280;33579;50.058;18.130;2023-04-26T03:12:33;98891.19;;;5.83;99.44
47815;BME280;33579;50.058;18.130;2023-04-26T03:13:35;98891.09;;;5.85;99.01
47815;BME280;33579;50.058;18.130;2023-04-26T03:14:37;98896.19;;;5.86;98.98
47815;BME280;33579;50.058;18.130;2023-04-26T03:15:43;98892.31;;;5.92;98.52
47815;BME280;33579;50.058;18.130;2023-04-26T03:16:45;98894.50;;;5.98;100.00
47815;BME280;33579;50.058;18.130;2023-04-26T03:17:47;98891.03;;;5.98;100.00
47815;BME280;33579;50.058;18.130;2023-04-26T03:18:49;98899.09;;;5.95;100.00
47815;BME280;33579;50.058;18.130;2023-04-26T03:19:51;98895.66;;;5.94;100.00
47815;BME280;33579;50.058;18.130;2023-04-26T03:20:52;98894.59;;;5.97;100.00
47815;BME280;33579;50.058;18.130;2023-04-26T03:21:55;98899.41;;;5.90;100.00
47815;BME280;33579;50.058;18.130;2023-04-26T03:22:57;98899.41;;;5.90;100.00
47815;BME280;33579;50.058;18.130;2023-04-26T03:23:59;98897.13;;;5.85;100.00
47815;BME280;33579;50.058;18.130;2023-04-26T03:25:01;98898.47;;;5.91;100.00
47815;BME280;33579;50.058;18.130;2023-04-26T03:26:03;98898.22;;;5.83;100.00
47815;BME280;33579;50.058;18.130;2023-04-26T03:27:05;98901.25;;;5.76;100.00
47815;BME280;33579;50.058;18.130;2023-04-26T03:28:07;98896.34;;;5.72;100.00
47815;BME280;33579;50.058;18.130;2023-04-26T03:29:09;98901.59;;;5.72;100.00
47815;BME280;33579;50.058;18.130;2023-04-26T03:30:11;98905.75;;;5.74;100.00
47815;BME280;33579;50.058;18.130;2023-04-26T03:31:13;98905.03;;;5.72;100.00
47815;BME280;33579;50.058;18.130;2023-04-26T03:32:15;98901.81;;;5.69;100.00
47815;BME280;33579;50.058;18.130;2023-04-26T03:33:17;98898.81;;;5.62;100.00
47815;BME280;33579;50.058;18.130;2023-04-26T03:34:19;98906.63;;;5.62;100.00
47815;BME280;33579;50.058;18.130;2023-04-26T03:35:21;98902.13;;;5.64;100.00
47815;BME280;33579;50.058;18.130;2023-04-26T03:36:23;98910.91;;;5.63;99.90
47815;BME280;33579;50.058;18.130;2023-04-26T03:37:25;98908.22;;;5.52;100.00
47815;BME280;33579;50.058;18.130;2023-04-26T03:38:32;98908.22;;;5.52;100.00
47815;BME280;33579;50.058;18.130;2023-04-26T03:39:34;98906.41;;;5.65;100.00
47815;BME280;33579;50.058;18.130;2023-04-26T03:40:36;98911.91;;;5.73;100.00
47815;BME280;33579;50.058;18.130;2023-04-26T03:41:38;98914.44;;;5.75;100.00
47815;BME280;33579;50.058;18.130;2023-04-26T03:42:42;98909.94;;;5.77;100.00
47815;BME280;33579;50.058;18.130;2023-04-26T03:43:44;98912.75;;;5.74;100.00
47815;BME280;33579;50.058;18.130;2023-04-26T03:44:45;98916.78;;;5.54;100.00
47815;BME280;33579;50.058;18.130;2023-04-26T03:45:48;98914.47;;;5.49;100.00
47815;BME280;33579;50.058;18.130;2023-04-26T03:46:50;98918.34;;;5.56;100.00
47815;BME280;33579;50.058;18.130;2023-04-26T03:47:52;98919.06;;;5.58;100.00
47815;BME280;33579;50.058;18.130;2023-04-26T03:48:53;98921.50;;;5.48;100.00
47815;BME280;33579;50.058;18.130;2023-04-26T03:49:56;98917.03;;;5.38;100.00
47815;BME280;33579;50.058;18.130;2023-04-26T03:50:58;98915.88;;;5.42;100.00
47815;BME280;33579;50.058;18.130;2023-04-26T03:52:01;98922.31;;;5.49;100.00
47815;BME280;33579;50.058;18.130;2023-04-26T03:53:03;98921.66;;;5.58;100.00
47815;BME280;33579;50.058;18.130;2023-04-26T03:54:05;98926.56;;;5.63;100.00
47815;BME280;33579;50.058;18.130;2023-04-26T03:55:07;98925.00;;;5.60;100.00
47815;BME280;33579;50.058;18.130;2023-04-26T03:56:09;98928.22;;;5.64;100.00
47815;BME280;33579;50.058;18.130;2023-04-26T03:57:11;98927.09;;;5.68;100.00
47815;BME280;33579;50.058;18.130;2023-04-26T03:58:15;98929.47;;;5.71;100.00
47815;BME280;33579;50.058;18.130;2023-04-26T03:59:16;98924.25;;;5.71;100.00
47815;BME280;33579;50.058;18.130;2023-04-26T04:00:18;98931.84;;;5.74;100.00
47815;BME280;33579;50.058;18.130;2023-04-26T04:01:21;98932.34;;;5.80;100.00
47815;BME280;33579;50.058;18.130;2023-04-26T04:02:24;98934.63;;;5.84;99.77
47815;BME280;33579;50.058;18.130;2023-04-26T04:03:26;98937.16;;;5.86;99.27
47815;BME280;33579;50.058;18.130;2023-04-26T04:04:28;98938.81;;;5.87;99.36
47815;BME280;33579;50.058;18.130;2023-04-26T04:05:30;98943.31;;;5.85;99.19
47815;BME280;33579;50.058;18.130;2023-04-26T04:06:32;98943.00;;;5.89;99.17
47815;BME280;33579;50.058;18.130;2023-04-26T04:07:34;98945.69;;;5.88;99.34
47815;BME280;33579;50.058;18.130;2023-04-26T04:08:36;98941.31;;;5.88;99.41
47815;BME280;33579;50.058;18.130;2023-04-26T04:09:38;98940.72;;;5.85;99.87
47815;BME280;33579;50.058;18.130;2023-04-26T04:10:40;98947.59;;;5.86;100.00
47815;BME280;33579;50.058;18.130;2023-04-26T04:11:43;98945.94;;;5.85;100.00
47815;BME280;33579;50.058;18.130;2023-04-26T04:12:51;98944.25;;;5.84;100.00
47815;BME280;33579;50.058;18.130;2023-04-26T04:13:53;98942.59;;;5.83;99.94
47815;BME280;33579;50.058;18.130;2023-04-26T04:14:55;98947.91;;;5.81;99.98
47815;BME280;33579;50.058;18.130;2023-04-26T04:15:59;98947.91;;;5.81;100.00
47815;BME280;33579;50.058;18.130;2023-04-26T04:17:01;98940.19;;;5.80;100.00
47815;BME280;33579;50.058;18.130;2023-04-26T04:18:03;98948.41;;;5.86;100.00
47815;BME280;33579;50.058;18.130;2023-04-26T04:19:05;98948.09;;;5.91;100.00
47815;BME280;33579;50.058;18.130;2023-04-26T04:20:07;98945.69;;;5.88;100.00
47815;BME280;33579;50.058;18.130;2023-04-26T04:21:09;98942.03;;;5.90;100.00
47815;BME280;33579;50.058;18.130;2023-04-26T04:22:11;98946.22;;;5.93;100.00
47815;BME280;33579;50.058;18.130;2023-04-26T04:23:13;98951.09;;;5.98;99.74
47815;BME280;33579;50.058;18.130;2023-04-26T04:24:15;98938.25;;;6.08;100.00
47815;BME280;33579;50.058;18.130;2023-04-26T04:25:16;98951.09;;;6.11;100.00
47815;BME280;33579;50.058;18.130;2023-04-26T04:26:18;98951.09;;;6.11;100.00
47815;BME280;33579;50.058;18.130;2023-04-26T04:27:21;98945.41;;;6.17;100.00
47815;BME280;33579;50.058;18.130;2023-04-26T04:28:23;98944.47;;;6.18;100.00
47815;BME280;33579;50.058;18.130;2023-04-26T04:29:25;98950.63;;;6.17;100.00
47815;BME280;33579;50.058;18.130;2023-04-26T04:30:28;98950.28;;;6.22;100.00
47815;BME280;33579;50.058;18.130;2023-04-26T04:31:29;98948.06;;;6.28;100.00
47815;BME280;33579;50.058;18.130;2023-04-26T04:32:32;98950.13;;;6.36;100.00
47815;BME280;33579;50.058;18.130;2023-04-26T04:33:34;98948.44;;;6.35;100.00
47815;BME280;33579;50.058;18.130;2023-04-26T04:34:36;98952.38;;;6.41;100.00
47815;BME280;33579;50.058;18.130;2023-04-26T04:35:40;98949.34;;;6.47;100.00
47815;BME280;33579;50.058;18.130;2023-04-26T04:36:42;98958.16;;;6.57;100.00
47815;BME280;33579;50.058;18.130;2023-04-26T04:37:43;98956.63;;;6.66;100.00
47815;BME280;33579;50.058;18.130;2023-04-26T04:38:46;98955.34;;;6.72;100.00
47815;BME280;33579;50.058;18.130;2023-04-26T04:39:53;98951.09;;;6.82;100.00
47815;BME280;33579;50.058;18.130;2023-04-26T04:40:55;98949.47;;;6.93;100.00
47815;BME280;33579;50.058;18.130;2023-04-26T04:41:57;98951.50;;;7.00;100.00
47815;BME280;33579;50.058;18.130;2023-04-26T04:42:59;98953.88;;;7.15;99.65
47815;BME280;33579;50.058;18.130;2023-04-26T04:44:01;98954.94;;;7.24;99.03
47815;BME280;33579;50.058;18.130;2023-04-26T04:45:03;98955.19;;;7.32;98.74
47815;BME280;33579;50.058;18.130;2023-04-26T04:46:06;98962.34;;;7.41;97.71
47815;BME280;33579;50.058;18.130;2023-04-26T04:47:11;98956.38;;;7.51;95.48
47815;BME280;33579;50.058;18.130;2023-04-26T04:48:12;98961.13;;;7.57;93.38
47815;BME280;33579;50.058;18.130;2023-04-26T04:49:14;98959.31;;;7.69;93.48
47815;BME280;33579;50.058;18.130;2023-04-26T04:50:16;98960.28;;;7.79;93.53
47815;BME280;33579;50.058;18.130;2023-04-26T04:51:17;98961.81;;;7.93;93.28
47815;BME280;33579;50.058;18.130;2023-04-26T04:52:20;98958.47;;;8.02;93.16
47815;BME280;33579;50.058;18.130;2023-04-26T04:54:38;98954.84;;;8.15;91.99
47815;BME280;33579;50.058;18.130;2023-04-26T04:55:41;98962.41;;;8.29;91.17
47815;BME280;33579;50.058;18.130;2023-04-26T04:56:44;98957.34;;;8.38;89.07
47815;BME280;33579;50.058;18.130;2023-04-26T04:57:47;98961.28;;;8.43;88.44
47815;BME280;33579;50.058;18.130;2023-04-26T04:58:49;98969.81;;;8.57;87.67
47815;BME280;33579;50.058;18.130;2023-04-26T04:59:52;98962.03;;;8.67;88.68
47815;BME280;33579;50.058;18.130;2023-04-26T05:00:54;98967.09;;;8.80;88.51
47815;BME280;33579;50.058;18.130;2023-04-26T05:09:10;98976.59;;;8.60;87.74
47815;BME280;33579;50.058;18.130;2023-04-26T05:10:12;98975.66;;;8.61;87.52
47815;BME280;33579;50.058;18.130;2023-04-26T05:20:56;98987.16;;;8.69;88.91
47815;BME280;33579;50.058;18.130;2023-04-26T05:21:59;98988.28;;;8.67;89.07
47815;BME280;33579;50.058;18.130;2023-04-26T05:30:49;98994.59;;;8.64;91.29
47815;BME280;33579;50.058;18.130;2023-04-26T05:32:01;98994.69;;;8.63;92.03
47815;BME280;33579;50.058;18.130;2023-04-26T05:33:14;98998.66;;;8.57;92.50
47815;BME280;33579;50.058;18.130;2023-04-26T05:34:22;98992.97;;;8.52;93.04
47815;BME280;33579;50.058;18.130;2023-04-26T05:35:28;98992.97;;;8.52;93.35
47815;BME280;33579;50.058;18.130;2023-04-26T05:36:30;98991.81;;;8.33;93.70
47815;BME280;33579;50.058;18.130;2023-04-26T05:37:32;99000.19;;;8.27;94.81
47815;BME280;33579;50.058;18.130;2023-04-26T05:38:35;99002.56;;;8.19;95.34
47815;BME280;33579;50.058;18.130;2023-04-26T05:39:36;99001.06;;;8.16;96.41
47815;BME280;33579;50.058;18.130;2023-04-26T05:40:38;99001.63;;;8.08;96.85
47815;BME280;33579;50.058;18.130;2023-04-26T05:41:40;98989.63;;;8.06;97.01
47815;BME280;33579;50.058;18.130;2023-04-26T05:42:42;98997.78;;;7.91;95.65
47815;BME280;33579;50.058;18.130;2023-04-26T05:43:45;98993.34;;;7.80;94.56
47815;BME280;33579;50.058;18.130;2023-04-26T05:44:47;99004.34;;;7.74;94.79
47815;BME280;33579;50.058;18.130;2023-04-26T05:45:53;98998.75;;;7.79;95.91
47815;BME280;33579;50.058;18.130;2023-04-26T05:46:55;99003.25;;;7.77;95.31
47815;BME280;33579;50.058;18.130;2023-04-26T05:49:09;99000.88;;;7.62;94.63
47815;BME280;33579;50.058;18.130;2023-04-26T05:50:11;99007.66;;;7.53;94.22
47815;BME280;33579;50.058;18.130;2023-04-26T05:51:12;99005.28;;;7.50;94.81
47815;BME280;33579;50.058;18.130;2023-04-26T05:52:14;99005.88;;;7.54;94.83
47815;BME280;33579;50.058;18.130;2023-04-26T05:53:16;99004.69;;;7.47;94.53
47815;BME280;33579;50.058;18.130;2023-04-26T05:54:18;99012.06;;;7.41;94.87
47815;BME280;33579;50.058;18.130;2023-04-26T05:55:19;99002.06;;;7.47;94.96
47815;BME280;33579;50.058;18.130;2023-04-26T05:56:21;99016.59;;;7.62;95.55
47815;BME280;33579;50.058;18.130;2023-04-26T05:57:23;99014.06;;;7.83;95.35